sensor_id;sensor_type;location;lat;lon;timestamp;P1;durP1;ratioP1;P2;durP2;ratioP2
9256;SDS011;4665;51.368;6.782;2022-11-21T00:01:47;27.53;;;17.77;;
9256;SDS011;4665;51.368;6.782;2022-11-21T00:04:12;31.97;;;18.97;;
9256;SDS011;4665;51.368;6.782;2022-11-21T00:06:37;27.73;;;18.80;;
9256;SDS011;4665;51.368;6.782;2022-11-21T00:09:03;28.70;;;18.43;;
9256;SDS011;4665;51.368;6.782;2022-11-21T00:11:28;29.93;;;19.73;;
9256;SDS011;4665;51.368;6.782;2022-11-21T00:13:53;31.53;;;20.23;;
9256;SDS011;4665;51.368;6.782;2022-11-21T00:16:19;34.50;;;20.03;;
9256;SDS011;4665;51.368;6.782;2022-11-21T00:18:44;30.73;;;19.80;;
9256;SDS011;4665;51.368;6.782;2022-11-21T00:21:16;37.33;;;20.93;;
9256;SDS011;4665;51.368;6.782;2022-11-21T00:23:43;33.67;;;20.27;;
9256;SDS011;4665;51.368;6.782;2022-11-21T00:26:10;32.87;;;18.83;;
9256;SDS011;4665;51.368;6.782;2022-11-21T00:28:37;36.50;;;20.07;;
9256;SDS011;4665;51.368;6.782;2022-11-21T00:31:03;36.23;;;19.60;;
9256;SDS011;4665;51.368;6.782;2022-11-21T00:33:29;35.40;;;20.07;;
9256;SDS011;4665;51.368;6.782;2022-11-21T00:35:54;35.83;;;20.83;;
9256;SDS011;4665;51.368;6.782;2022-11-21T00:38:20;38.10;;;21.40;;
9256;SDS011;4665;51.368;6.782;2022-11-21T00:40:45;41.70;;;21.67;;
9256;SDS011;4665;51.368;6.782;2022-11-21T00:43:10;42.07;;;22.93;;
9256;SDS011;4665;51.368;6.782;2022-11-21T00:45:36;42.63;;;24.03;;
9256;SDS011;4665;51.368;6.782;2022-11-21T00:48:02;50.07;;;25.60;;
9256;SDS011;4665;51.368;6.782;2022-11-21T00:50:27;47.27;;;25.50;;
9256;SDS011;4665;51.368;6.782;2022-11-21T00:52:53;44.37;;;24.40;;
9256;SDS011;4665;51.368;6.782;2022-11-21T00:55:20;44.07;;;25.60;;
9256;SDS011;4665;51.368;6.782;2022-11-21T00:57:45;47.27;;;25.57;;
9256;SDS011;4665;51.368;6.782;2022-11-21T01:00:11;45.53;;;25.70;;
9256;SDS011;4665;51.368;6.782;2022-11-21T01:02:37;57.17;;;29.47;;
9256;SDS011;4665;51.368;6.782;2022-11-21T01:05:02;55.67;;;29.17;;
9256;SDS011;4665;51.368;6.782;2022-11-21T01:07:28;46.43;;;25.17;;
9256;SDS011;4665;51.368;6.782;2022-11-21T01:09:53;56.10;;;27.23;;
9256;SDS011;4665;51.368;6.782;2022-11-21T01:12:18;49.97;;;27.33;;
9256;SDS011;4665;51.368;6.782;2022-11-21T01:14:44;48.57;;;27.67;;
9256;SDS011;4665;51.368;6.782;2022-11-21T01:17:09;51.53;;;27.67;;
9256;SDS011;4665;51.368;6.782;2022-11-21T01:19:34;49.17;;;27.90;;
9256;SDS011;4665;51.368;6.782;2022-11-21T01:22:00;45.97;;;26.60;;
9256;SDS011;4665;51.368;6.782;2022-11-21T01:24:25;45.60;;;26.57;;
9256;SDS011;4665;51.368;6.782;2022-11-21T01:26:50;50.33;;;27.90;;
9256;SDS011;4665;51.368;6.782;2022-11-21T01:29:18;42.40;;;24.57;;
9256;SDS011;4665;51.368;6.782;2022-11-21T01:31:43;43.03;;;25.50;;
9256;SDS011;4665;51.368;6.782;2022-11-21T01:34:08;36.00;;;22.53;;
9256;SDS011;4665;51.368;6.782;2022-11-21T01:36:34;39.07;;;22.80;;
9256;SDS011;4665;51.368;6.782;2022-11-21T01:39:00;40.27;;;23.00;;
9256;SDS011;4665;51.368;6.782;2022-11-21T01:41:28;40.73;;;23.60;;
9256;SDS011;4665;51.368;6.782;2022-11-21T01:43:57;35.33;;;22.77;;
9256;SDS011;4665;51.368;6.782;2022-11-21T01:46:24;35.70;;;22.73;;
9256;SDS011;4665;51.368;6.782;2022-11-21T01:51:28;34.80;;;21.63;;
9256;SDS011;4665;51.368;6.782;2022-11-21T01:54:10;33.30;;;22.20;;
9256;SDS011;4665;51.368;6.782;2022-11-21T02:02:09;34.70;;;22.43;;
9256;SDS011;4665;51.368;6.782;2022-11-21T02:04:37;32.77;;;21.87;;
9256;SDS011;4665;51.368;6.782;2022-11-21T02:07:06;35.70;;;23.33;;
9256;SDS011;4665;51.368;6.782;2022-11-21T02:09:33;35.93;;;22.43;;
9256;SDS011;4665;51.368;6.782;2022-11-21T02:12:21;31.60;;;20.30;;
9256;SDS011;4665;51.368;6.782;2022-11-21T02:14:50;32.67;;;22.00;;
9256;SDS011;4665;51.368;6.782;2022-11-21T02:17:17;31.47;;;21.90;;
9256;SDS011;4665;51.368;6.782;2022-11-21T02:19:59;34.67;;;20.90;;
9256;SDS011;4665;51.368;6.782;2022-11-21T02:22:42;36.40;;;20.97;;
9256;SDS011;4665;51.368;6.782;2022-11-21T02:25:14;33.90;;;21.10;;
9256;SDS011;4665;51.368;6.782;2022-11-21T02:27:46;38.13;;;23.17;;
9256;SDS011;4665;51.368;6.782;2022-11-21T02:30:13;32.23;;;21.43;;
9256;SDS011;4665;51.368;6.782;2022-11-21T02:32:40;35.87;;;22.60;;
9256;SDS011;4665;51.368;6.782;2022-11-21T02:35:11;38.33;;;23.00;;
9256;SDS011;4665;51.368;6.782;2022-11-21T02:37:38;37.37;;;23.33;;
9256;SDS011;4665;51.368;6.782;2022-11-21T02:40:05;33.83;;;21.83;;
9256;SDS011;4665;51.368;6.782;2022-11-21T02:45:34;32.50;;;21.33;;
9256;SDS011;4665;51.368;6.782;2022-11-21T02:48:03;36.07;;;22.63;;
9256;SDS011;4665;51.368;6.782;2022-11-21T02:50:30;35.60;;;22.37;;
9256;SDS011;4665;51.368;6.782;2022-11-21T02:52:57;34.10;;;21.33;;
9256;SDS011;4665;51.368;6.782;2022-11-21T02:55:23;39.47;;;23.13;;
9256;SDS011;4665;51.368;6.782;2022-11-21T02:57:49;34.70;;;21.50;;
9256;SDS011;4665;51.368;6.782;2022-11-21T03:00:14;33.53;;;22.00;;
9256;SDS011;4665;51.368;6.782;2022-11-21T03:02:40;35.87;;;22.57;;
9256;SDS011;4665;51.368;6.782;2022-11-21T03:05:06;33.47;;;21.17;;
9256;SDS011;4665;51.368;6.782;2022-11-21T03:07:33;33.77;;;22.73;;
9256;SDS011;4665;51.368;6.782;2022-11-21T03:09:59;37.17;;;22.87;;
9256;SDS011;4665;51.368;6.782;2022-11-21T03:12:25;33.13;;;22.03;;
9256;SDS011;4665;51.368;6.782;2022-11-21T03:14:50;34.80;;;20.87;;
9256;SDS011;4665;51.368;6.782;2022-11-21T03:17:15;32.23;;;20.53;;
9256;SDS011;4665;51.368;6.782;2022-11-21T03:19:41;39.43;;;22.73;;
9256;SDS011;4665;51.368;6.782;2022-11-21T03:22:06;34.67;;;22.53;;
9256;SDS011;4665;51.368;6.782;2022-11-21T03:24:32;33.87;;;21.00;;
9256;SDS011;4665;51.368;6.782;2022-11-21T03:26:57;39.67;;;22.80;;
9256;SDS011;4665;51.368;6.782;2022-11-21T03:29:23;46.40;;;23.30;;
9256;SDS011;4665;51.368;6.782;2022-11-21T03:31:48;39.90;;;23.10;;
9256;SDS011;4665;51.368;6.782;2022-11-21T03:34:14;40.40;;;22.13;;
9256;SDS011;4665;51.368;6.782;2022-11-21T03:36:39;40.57;;;21.57;;
9256;SDS011;4665;51.368;6.782;2022-11-21T03:39:04;42.70;;;21.93;;
9256;SDS011;4665;51.368;6.782;2022-11-21T03:41:30;38.37;;;21.17;;
9256;SDS011;4665;51.368;6.782;2022-11-21T03:44:00;46.83;;;22.93;;
9256;SDS011;4665;51.368;6.782;2022-11-21T03:46:30;41.93;;;23.17;;
9256;SDS011;4665;51.368;6.782;2022-11-21T03:48:57;42.27;;;23.13;;
9256;SDS011;4665;51.368;6.782;2022-11-21T03:51:23;45.13;;;22.93;;
9256;SDS011;4665;51.368;6.782;2022-11-21T03:53:49;45.90;;;23.80;;
9256;SDS011;4665;51.368;6.782;2022-11-21T03:56:15;44.77;;;23.37;;
9256;SDS011;4665;51.368;6.782;2022-11-21T03:58:41;51.33;;;24.60;;
9256;SDS011;4665;51.368;6.782;2022-11-21T04:01:06;49.90;;;24.07;;
9256;SDS011;4665;51.368;6.782;2022-11-21T04:03:32;43.90;;;23.77;;
9256;SDS011;4665;51.368;6.782;2022-11-21T04:05:58;50.07;;;24.03;;
9256;SDS011;4665;51.368;6.782;2022-11-21T04:08:23;41.87;;;20.73;;
9256;SDS011;4665;51.368;6.782;2022-11-21T04:10:49;44.27;;;22.17;;
9256;SDS011;4665;51.368;6.782;2022-11-21T04:13:16;39.30;;;20.77;;
9256;SDS011;4665;51.368;6.782;2022-11-21T04:15:42;43.07;;;21.27;;
9256;SDS011;4665;51.368;6.782;2022-11-21T04:18:08;42.23;;;21.47;;
9256;SDS011;4665;51.368;6.782;2022-11-21T04:20:33;38.20;;;20.20;;
9256;SDS011;4665;51.368;6.782;2022-11-21T04:22:59;39.00;;;20.33;;
9256;SDS011;4665;51.368;6.782;2022-11-21T04:25:24;33.77;;;18.73;;
9256;SDS011;4665;51.368;6.782;2022-11-21T04:27:49;37.10;;;19.50;;
9256;SDS011;4665;51.368;6.782;2022-11-21T04:30:15;31.13;;;17.60;;
9256;SDS011;4665;51.368;6.782;2022-11-21T04:32:40;32.93;;;17.47;;
9256;SDS011;4665;51.368;6.782;2022-11-21T04:35:06;36.33;;;19.40;;
9256;SDS011;4665;51.368;6.782;2022-11-21T04:37:31;38.00;;;18.93;;
9256;SDS011;4665;51.368;6.782;2022-11-21T04:39:57;40.03;;;19.80;;
9256;SDS011;4665;51.368;6.782;2022-11-21T04:42:22;36.37;;;20.47;;
9256;SDS011;4665;51.368;6.782;2022-11-21T04:44:48;40.40;;;19.43;;
9256;SDS011;4665;51.368;6.782;2022-11-21T04:47:13;27.57;;;15.67;;
9256;SDS011;4665;51.368;6.782;2022-11-21T04:49:38;31.70;;;17.50;;
9256;SDS011;4665;51.368;6.782;2022-11-21T04:52:04;31.63;;;16.73;;
9256;SDS011;4665;51.368;6.782;2022-11-21T04:54:29;34.73;;;19.57;;
9256;SDS011;4665;51.368;6.782;2022-11-21T04:56:54;28.43;;;16.87;;
9256;SDS011;4665;51.368;6.782;2022-11-21T04:59:20;33.47;;;18.37;;
9256;SDS011;4665;51.368;6.782;2022-11-21T05:01:45;29.90;;;17.50;;
9256;SDS011;4665;51.368;6.782;2022-11-21T05:04:10;33.60;;;19.10;;
9256;SDS011;4665;51.368;6.782;2022-11-21T05:06:36;30.90;;;17.10;;
9256;SDS011;4665;51.368;6.782;2022-11-21T05:09:02;32.10;;;17.00;;
9256;SDS011;4665;51.368;6.782;2022-11-21T05:11:27;30.23;;;17.07;;
9256;SDS011;4665;51.368;6.782;2022-11-21T05:14:11;30.20;;;17.03;;
9256;SDS011;4665;51.368;6.782;2022-11-21T05:16:36;26.07;;;15.07;;
9256;SDS011;4665;51.368;6.782;2022-11-21T05:19:02;43.23;;;20.23;;
9256;SDS011;4665;51.368;6.782;2022-11-21T05:21:27;35.33;;;19.47;;
9256;SDS011;4665;51.368;6.782;2022-11-21T05:23:52;33.43;;;17.33;;
9256;SDS011;4665;51.368;6.782;2022-11-21T05:26:18;36.33;;;19.20;;
9256;SDS011;4665;51.368;6.782;2022-11-21T05:28:43;34.80;;;18.70;;
9256;SDS011;4665;51.368;6.782;2022-11-21T05:31:08;32.10;;;16.77;;
9256;SDS011;4665;51.368;6.782;2022-11-21T05:33:34;32.20;;;17.63;;
9256;SDS011;4665;51.368;6.782;2022-11-21T05:35:59;34.13;;;16.37;;
9256;SDS011;4665;51.368;6.782;2022-11-21T05:38:24;35.40;;;18.23;;
9256;SDS011;4665;51.368;6.782;2022-11-21T05:40:50;39.57;;;19.43;;
9256;SDS011;4665;51.368;6.782;2022-11-21T05:43:17;37.60;;;19.93;;
9256;SDS011;4665;51.368;6.782;2022-11-21T05:46:01;35.20;;;18.20;;
9256;SDS011;4665;51.368;6.782;2022-11-21T05:48:26;39.77;;;19.80;;
9256;SDS011;4665;51.368;6.782;2022-11-21T05:50:51;42.43;;;19.40;;
9256;SDS011;4665;51.368;6.782;2022-11-21T05:53:17;33.30;;;18.07;;
9256;SDS011;4665;51.368;6.782;2022-11-21T05:55:43;34.33;;;16.70;;
9256;SDS011;4665;51.368;6.782;2022-11-21T05:58:08;28.77;;;16.60;;
9256;SDS011;4665;51.368;6.782;2022-11-21T06:00:35;32.47;;;15.87;;
9256;SDS011;4665;51.368;6.782;2022-11-21T06:03:00;37.47;;;17.70;;
9256;SDS011;4665;51.368;6.782;2022-11-21T06:05:44;32.57;;;16.80;;
9256;SDS011;4665;51.368;6.782;2022-11-21T06:08:10;34.33;;;17.67;;
9256;SDS011;4665;51.368;6.782;2022-11-21T06:10:35;36.23;;;19.87;;
9256;SDS011;4665;51.368;6.782;2022-11-21T06:13:01;38.57;;;19.50;;
9256;SDS011;4665;51.368;6.782;2022-11-21T06:15:27;42.90;;;19.07;;
9256;SDS011;4665;51.368;6.782;2022-11-21T06:17:53;40.50;;;20.17;;
9256;SDS011;4665;51.368;6.782;2022-11-21T06:20:18;41.33;;;20.00;;
9256;SDS011;4665;51.368;6.782;2022-11-21T06:22:44;49.13;;;22.00;;
9256;SDS011;4665;51.368;6.782;2022-11-21T06:25:09;43.50;;;21.30;;
9256;SDS011;4665;51.368;6.782;2022-11-21T06:27:34;55.70;;;21.97;;
9256;SDS011;4665;51.368;6.782;2022-11-21T06:30:00;45.70;;;22.50;;
9256;SDS011;4665;51.368;6.782;2022-11-21T06:32:25;44.87;;;20.17;;
9256;SDS011;4665;51.368;6.782;2022-11-21T06:34:51;42.83;;;20.70;;
9256;SDS011;4665;51.368;6.782;2022-11-21T06:37:16;40.20;;;19.47;;
9256;SDS011;4665;51.368;6.782;2022-11-21T06:39:41;39.63;;;20.30;;
9256;SDS011;4665;51.368;6.782;2022-11-21T06:42:07;37.00;;;19.47;;
9256;SDS011;4665;51.368;6.782;2022-11-21T06:44:32;41.93;;;21.50;;
9256;SDS011;4665;51.368;6.782;2022-11-21T06:46:57;35.93;;;20.73;;
9256;SDS011;4665;51.368;6.782;2022-11-21T06:49:23;37.07;;;19.30;;
9256;SDS011;4665;51.368;6.782;2022-11-21T06:51:48;43.27;;;22.03;;
9256;SDS011;4665;51.368;6.782;2022-11-21T06:54:14;39.33;;;20.33;;
9256;SDS011;4665;51.368;6.782;2022-11-21T06:56:39;41.93;;;22.23;;
9256;SDS011;4665;51.368;6.782;2022-11-21T06:59:04;51.73;;;22.40;;
9256;SDS011;4665;51.368;6.782;2022-11-21T07:01:30;30.80;;;18.20;;
9256;SDS011;4665;51.368;6.782;2022-11-21T07:03:55;33.87;;;17.90;;
9256;SDS011;4665;51.368;6.782;2022-11-21T07:06:21;50.83;;;21.53;;
9256;SDS011;4665;51.368;6.782;2022-11-21T07:08:50;43.70;;;21.37;;
9256;SDS011;4665;51.368;6.782;2022-11-21T07:11:17;41.63;;;21.00;;
9256;SDS011;4665;51.368;6.782;2022-11-21T07:13:42;47.90;;;20.70;;
9256;SDS011;4665;51.368;6.782;2022-11-21T07:16:09;37.33;;;19.57;;
9256;SDS011;4665;51.368;6.782;2022-11-21T07:18:38;40.27;;;20.77;;
9256;SDS011;4665;51.368;6.782;2022-11-21T07:21:04;45.20;;;21.20;;
9256;SDS011;4665;51.368;6.782;2022-11-21T07:23:30;42.17;;;20.73;;
9256;SDS011;4665;51.368;6.782;2022-11-21T07:26:01;44.40;;;21.53;;
9256;SDS011;4665;51.368;6.782;2022-11-21T07:28:28;36.77;;;20.30;;
9256;SDS011;4665;51.368;6.782;2022-11-21T07:30:57;44.80;;;20.77;;
9256;SDS011;4665;51.368;6.782;2022-11-21T07:33:24;39.77;;;21.30;;
9256;SDS011;4665;51.368;6.782;2022-11-21T07:35:49;52.40;;;22.33;;
9256;SDS011;4665;51.368;6.782;2022-11-21T07:38:15;50.20;;;23.27;;
9256;SDS011;4665;51.368;6.782;2022-11-21T07:40:40;45.17;;;21.03;;
9256;SDS011;4665;51.368;6.782;2022-11-21T07:43:06;37.27;;;20.33;;
9256;SDS011;4665;51.368;6.782;2022-11-21T07:45:32;49.80;;;23.37;;
9256;SDS011;4665;51.368;6.782;2022-11-21T07:48:02;43.90;;;21.73;;
9256;SDS011;4665;51.368;6.782;2022-11-21T07:50:29;52.03;;;23.17;;
9256;SDS011;4665;51.368;6.782;2022-11-21T07:52:58;50.93;;;22.87;;
9256;SDS011;4665;51.368;6.782;2022-11-21T07:55:25;52.40;;;22.93;;
9256;SDS011;4665;51.368;6.782;2022-11-21T08:00:28;44.10;;;20.73;;
9256;SDS011;4665;51.368;6.782;2022-11-21T08:02:55;49.43;;;22.57;;
9256;SDS011;4665;51.368;6.782;2022-11-21T08:05:20;43.67;;;20.97;;
9256;SDS011;4665;51.368;6.782;2022-11-21T08:07:46;58.47;;;24.83;;
9256;SDS011;4665;51.368;6.782;2022-11-21T08:10:12;58.47;;;24.40;;
9256;SDS011;4665;51.368;6.782;2022-11-21T08:12:38;60.07;;;23.77;;
9256;SDS011;4665;51.368;6.782;2022-11-21T08:15:04;57.03;;;25.23;;
9256;SDS011;4665;51.368;6.782;2022-11-21T08:17:30;51.87;;;23.37;;
9256;SDS011;4665;51.368;6.782;2022-11-21T08:19:56;51.97;;;23.60;;
9256;SDS011;4665;51.368;6.782;2022-11-21T08:22:24;55.60;;;23.27;;
9256;SDS011;4665;51.368;6.782;2022-11-21T08:24:49;49.97;;;22.70;;
9256;SDS011;4665;51.368;6.782;2022-11-21T08:27:15;47.23;;;22.00;;
9256;SDS011;4665;51.368;6.782;2022-11-21T08:29:44;48.77;;;22.93;;
9256;SDS011;4665;51.368;6.782;2022-11-21T08:32:10;46.90;;;21.10;;
9256;SDS011;4665;51.368;6.782;2022-11-21T08:34:35;47.83;;;22.77;;
9256;SDS011;4665;51.368;6.782;2022-11-21T08:37:00;40.60;;;21.00;;
9256;SDS011;4665;51.368;6.782;2022-11-21T08:39:26;48.90;;;21.77;;
9256;SDS011;4665;51.368;6.782;2022-11-21T08:41:52;40.90;;;20.70;;
9256;SDS011;4665;51.368;6.782;2022-11-21T08:44:30;45.17;;;21.60;;
9256;SDS011;4665;51.368;6.782;2022-11-21T08:46:57;38.80;;;20.73;;
9256;SDS011;4665;51.368;6.782;2022-11-21T08:49:22;44.73;;;22.20;;
9256;SDS011;4665;51.368;6.782;2022-11-21T08:51:48;41.13;;;20.50;;
9256;SDS011;4665;51.368;6.782;2022-11-21T08:54:20;35.30;;;18.93;;
9256;SDS011;4665;51.368;6.782;2022-11-21T08:56:48;37.20;;;18.23;;
9256;SDS011;4665;51.368;6.782;2022-11-21T08:59:14;43.50;;;20.57;;
9256;SDS011;4665;51.368;6.782;2022-11-21T09:01:39;44.33;;;20.93;;
9256;SDS011;4665;51.368;6.782;2022-11-21T09:04:05;39.53;;;20.97;;
9256;SDS011;4665;51.368;6.782;2022-11-21T09:06:31;35.80;;;19.50;;
9256;SDS011;4665;51.368;6.782;2022-11-21T09:08:56;35.47;;;18.90;;
9256;SDS011;4665;51.368;6.782;2022-11-21T09:11:21;33.60;;;17.93;;
9256;SDS011;4665;51.368;6.782;2022-11-21T09:13:48;32.00;;;18.03;;
9256;SDS011;4665;51.368;6.782;2022-11-21T09:16:34;33.43;;;18.43;;
9256;SDS011;4665;51.368;6.782;2022-11-21T09:19:19;31.67;;;19.50;;
9256;SDS011;4665;51.368;6.782;2022-11-21T09:21:45;37.40;;;19.63;;
9256;SDS011;4665;51.368;6.782;2022-11-21T09:24:13;29.97;;;17.80;;
9256;SDS011;4665;51.368;6.782;2022-11-21T09:26:39;31.57;;;17.60;;
9256;SDS011;4665;51.368;6.782;2022-11-21T09:29:04;38.03;;;19.83;;
9256;SDS011;4665;51.368;6.782;2022-11-21T09:31:30;34.83;;;16.97;;
9256;SDS011;4665;51.368;6.782;2022-11-21T09:33:55;26.50;;;17.10;;
9256;SDS011;4665;51.368;6.782;2022-11-21T09:36:20;26.03;;;15.07;;
9256;SDS011;4665;51.368;6.782;2022-11-21T09:38:46;26.90;;;15.80;;
9256;SDS011;4665;51.368;6.782;2022-11-21T09:41:15;27.80;;;16.07;;
9256;SDS011;4665;51.368;6.782;2022-11-21T09:47:16;23.90;;;15.17;;
9256;SDS011;4665;51.368;6.782;2022-11-21T09:49:47;29.83;;;15.73;;
9256;SDS011;4665;51.368;6.782;2022-11-21T09:52:26;21.60;;;15.80;;
9256;SDS011;4665;51.368;6.782;2022-11-21T09:55:12;24.67;;;15.77;;
9256;SDS011;4665;51.368;6.782;2022-11-21T09:57:46;22.20;;;14.63;;
9256;SDS011;4665;51.368;6.782;2022-11-21T10:00:24;17.90;;;13.07;;
9256;SDS011;4665;51.368;6.782;2022-11-21T10:02:49;19.17;;;14.00;;
9256;SDS011;4665;51.368;6.782;2022-11-21T10:05:16;20.67;;;13.73;;
9256;SDS011;4665;51.368;6.782;2022-11-21T10:07:52;20.13;;;14.40;;
9256;SDS011;4665;51.368;6.782;2022-11-21T10:10:29;16.23;;;12.97;;
9256;SDS011;4665;51.368;6.782;2022-11-21T10:16:07;15.43;;;11.90;;
9256;SDS011;4665;51.368;6.782;2022-11-21T10:21:59;17.50;;;13.60;;
9256;SDS011;4665;51.368;6.782;2022-11-21T10:24:39;18.30;;;13.53;;
9256;SDS011;4665;51.368;6.782;2022-11-21T10:27:32;15.20;;;13.03;;
9256;SDS011;4665;51.368;6.782;2022-11-21T10:30:05;17.73;;;12.53;;
9256;SDS011;4665;51.368;6.782;2022-11-21T10:32:38;17.10;;;13.20;;
9256;SDS011;4665;51.368;6.782;2022-11-21T10:35:25;17.20;;;12.37;;
9256;SDS011;4665;51.368;6.782;2022-11-21T10:37:55;17.07;;;12.83;;
9256;SDS011;4665;51.368;6.782;2022-11-21T10:43:08;22.03;;;13.30;;
9256;SDS011;4665;51.368;6.782;2022-11-21T10:46:05;18.73;;;12.40;;
9256;SDS011;4665;51.368;6.782;2022-11-21T10:48:31;20.10;;;12.40;;
9256;SDS011;4665;51.368;6.782;2022-11-21T10:53:37;18.70;;;12.17;;
9256;SDS011;4665;51.368;6.782;2022-11-21T10:56:22;19.93;;;12.93;;
9256;SDS011;4665;51.368;6.782;2022-11-21T10:58:54;21.83;;;12.77;;
9256;SDS011;4665;51.368;6.782;2022-11-21T11:01:26;15.40;;;11.40;;
9256;SDS011;4665;51.368;6.782;2022-11-21T11:06:30;20.57;;;11.77;;
9256;SDS011;4665;51.368;6.782;2022-11-21T11:08:55;17.53;;;11.07;;
9256;SDS011;4665;51.368;6.782;2022-11-21T11:11:21;15.13;;;10.73;;
9256;SDS011;4665;51.368;6.782;2022-11-21T11:14:04;16.10;;;9.57;;
9256;SDS011;4665;51.368;6.782;2022-11-21T11:16:36;16.27;;;9.87;;
9256;SDS011;4665;51.368;6.782;2022-11-21T11:29:29;12.90;;;8.87;;
9256;SDS011;4665;51.368;6.782;2022-11-21T11:31:59;15.27;;;8.63;;
9256;SDS011;4665;51.368;6.782;2022-11-21T11:35:16;18.23;;;9.20;;
9256;SDS011;4665;51.368;6.782;2022-11-21T11:37:19;15.33;;;9.03;;
9256;SDS011;4665;51.368;6.782;2022-11-21T11:52:49;11.00;;;7.10;;
9256;SDS011;4665;51.368;6.782;2022-11-21T11:58:06;12.80;;;7.43;;
9256;SDS011;4665;51.368;6.782;2022-11-21T12:00:41;13.50;;;7.67;;
9256;SDS011;4665;51.368;6.782;2022-11-21T12:05:44;10.97;;;7.30;;
9256;SDS011;4665;51.368;6.782;2022-11-21T12:11:09;13.20;;;7.73;;
9256;SDS011;4665;51.368;6.782;2022-11-21T12:13:58;13.10;;;6.73;;
9256;SDS011;4665;51.368;6.782;2022-11-21T12:16:31;10.97;;;6.90;;
9256;SDS011;4665;51.368;6.782;2022-11-21T12:19:02;8.63;;;5.93;;
9256;SDS011;4665;51.368;6.782;2022-11-21T12:21:36;9.47;;;5.30;;
9256;SDS011;4665;51.368;6.782;2022-11-21T12:24:01;8.13;;;4.93;;
9256;SDS011;4665;51.368;6.782;2022-11-21T12:43:31;7.90;;;3.97;;
9256;SDS011;4665;51.368;6.782;2022-11-21T12:55:25;7.47;;;4.63;;
9256;SDS011;4665;51.368;6.782;2022-11-21T13:06:19;9.77;;;6.37;;
9256;SDS011;4665;51.368;6.782;2022-11-21T13:08:47;8.37;;;5.93;;
9256;SDS011;4665;51.368;6.782;2022-11-21T13:14:17;10.63;;;6.10;;
9256;SDS011;4665;51.368;6.782;2022-11-21T13:16:55;6.80;;;5.47;;
9256;SDS011;4665;51.368;6.782;2022-11-21T13:27:42;8.90;;;5.07;;
9256;SDS011;4665;51.368;6.782;2022-11-21T13:35:25;6.33;;;4.97;;
9256;SDS011;4665;51.368;6.782;2022-11-21T13:45:48;9.60;;;5.30;;
9256;SDS011;4665;51.368;6.782;2022-11-21T14:00:22;7.87;;;4.20;;
9256;SDS011;4665;51.368;6.782;2022-11-21T14:08:20;7.30;;;4.50;;
9256;SDS011;4665;51.368;6.782;2022-11-21T14:10:51;5.73;;;3.97;;
9256;SDS011;4665;51.368;6.782;2022-11-21T14:18:40;6.73;;;4.17;;
9256;SDS011;4665;51.368;6.782;2022-11-21T14:21:15;7.60;;;4.70;;
9256;SDS011;4665;51.368;6.782;2022-11-21T14:23:44;7.00;;;4.50;;
9256;SDS011;4665;51.368;6.782;2022-11-21T14:26:11;6.57;;;4.73;;
9256;SDS011;4665;51.368;6.782;2022-11-21T14:28:41;10.40;;;4.50;;
9256;SDS011;4665;51.368;6.782;2022-11-21T14:31:07;6.83;;;3.90;;
9256;SDS011;4665;51.368;6.782;2022-11-21T14:33:39;5.20;;;3.90;;
9256;SDS011;4665;51.368;6.782;2022-11-21T14:36:10;6.93;;;4.40;;
9256;SDS011;4665;51.368;6.782;2022-11-21T14:43:48;7.23;;;4.80;;
9256;SDS011;4665;51.368;6.782;2022-11-21T14:46:15;6.30;;;4.80;;
9256;SDS011;4665;51.368;6.782;2022-11-21T14:48:44;5.93;;;4.27;;
9256;SDS011;4665;51.368;6.782;2022-11-21T14:51:10;5.77;;;3.60;;
9256;SDS011;4665;51.368;6.782;2022-11-21T14:53:41;5.53;;;3.97;;
9256;SDS011;4665;51.368;6.782;2022-11-21T14:56:18;6.33;;;3.80;;
9256;SDS011;4665;51.368;6.782;2022-11-21T14:58:46;4.77;;;2.90;;
9256;SDS011;4665;51.368;6.782;2022-11-21T15:01:22;3.03;;;2.70;;
9256;SDS011;4665;51.368;6.782;2022-11-21T15:03:53;4.77;;;2.60;;
9256;SDS011;4665;51.368;6.782;2022-11-21T15:06:22;2.60;;;2.50;;
9256;SDS011;4665;51.368;6.782;2022-11-21T15:08:48;5.43;;;2.97;;
9256;SDS011;4665;51.368;6.782;2022-11-21T15:11:14;3.73;;;2.77;;
9256;SDS011;4665;51.368;6.782;2022-11-21T15:13:42;4.90;;;2.47;;
9256;SDS011;4665;51.368;6.782;2022-11-21T15:16:10;2.43;;;2.23;;
9256;SDS011;4665;51.368;6.782;2022-11-21T15:18:38;6.07;;;2.53;;
9256;SDS011;4665;51.368;6.782;2022-11-21T15:21:05;2.70;;;2.30;;
9256;SDS011;4665;51.368;6.782;2022-11-21T15:23:31;2.73;;;1.97;;
9256;SDS011;4665;51.368;6.782;2022-11-21T15:25:59;2.67;;;2.07;;
9256;SDS011;4665;51.368;6.782;2022-11-21T15:28:26;3.27;;;2.20;;
9256;SDS011;4665;51.368;6.782;2022-11-21T15:33:54;2.27;;;2.00;;
9256;SDS011;4665;51.368;6.782;2022-11-21T15:36:21;5.53;;;2.10;;
9256;SDS011;4665;51.368;6.782;2022-11-21T15:39:00;4.30;;;2.10;;
9256;SDS011;4665;51.368;6.782;2022-11-21T15:41:34;4.73;;;2.00;;
9256;SDS011;4665;51.368;6.782;2022-11-21T15:48:54;2.03;;;1.93;;
9256;SDS011;4665;51.368;6.782;2022-11-21T15:51:25;1.70;;;1.60;;
9256;SDS011;4665;51.368;6.782;2022-11-21T15:54:01;3.50;;;1.70;;
9256;SDS011;4665;51.368;6.782;2022-11-21T15:56:27;1.87;;;1.60;;
9256;SDS011;4665;51.368;6.782;2022-11-21T15:58:53;2.90;;;1.70;;
9256;SDS011;4665;51.368;6.782;2022-11-21T16:03:44;4.23;;;1.70;;
9256;SDS011;4665;51.368;6.782;2022-11-21T16:06:12;2.60;;;1.90;;
9256;SDS011;4665;51.368;6.782;2022-11-21T16:08:37;3.60;;;1.97;;
9256;SDS011;4665;51.368;6.782;2022-11-21T16:11:03;4.50;;;2.20;;
9256;SDS011;4665;51.368;6.782;2022-11-21T16:13:28;2.43;;;2.00;;
9256;SDS011;4665;51.368;6.782;2022-11-21T16:15:54;2.80;;;2.00;;
9256;SDS011;4665;51.368;6.782;2022-11-21T16:18:19;2.03;;;1.80;;
9256;SDS011;4665;51.368;6.782;2022-11-21T16:20:44;2.30;;;1.90;;
9256;SDS011;4665;51.368;6.782;2022-11-21T16:23:10;2.00;;;1.80;;
9256;SDS011;4665;51.368;6.782;2022-11-21T16:25:37;2.70;;;2.00;;
9256;SDS011;4665;51.368;6.782;2022-11-21T16:28:03;5.60;;;2.67;;
9256;SDS011;4665;51.368;6.782;2022-11-21T16:30:28;2.93;;;2.07;;
9256;SDS011;4665;51.368;6.782;2022-11-21T16:32:54;3.57;;;2.40;;
9256;SDS011;4665;51.368;6.782;2022-11-21T16:35:21;3.17;;;2.37;;
9256;SDS011;4665;51.368;6.782;2022-11-21T16:37:47;1.70;;;1.60;;
9256;SDS011;4665;51.368;6.782;2022-11-21T16:40:12;1.63;;;1.53;;
9256;SDS011;4665;51.368;6.782;2022-11-21T16:42:38;4.43;;;2.10;;
9256;SDS011;4665;51.368;6.782;2022-11-21T16:45:03;2.07;;;1.87;;
9256;SDS011;4665;51.368;6.782;2022-11-21T16:47:29;2.43;;;1.80;;
9256;SDS011;4665;51.368;6.782;2022-11-21T16:49:54;8.13;;;2.80;;
9256;SDS011;4665;51.368;6.782;2022-11-21T16:52:20;3.17;;;2.00;;
9256;SDS011;4665;51.368;6.782;2022-11-21T16:54:45;3.37;;;2.17;;
9256;SDS011;4665;51.368;6.782;2022-11-21T16:57:11;3.17;;;1.93;;
9256;SDS011;4665;51.368;6.782;2022-11-21T16:59:36;4.13;;;2.13;;
9256;SDS011;4665;51.368;6.782;2022-11-21T17:02:01;4.80;;;2.00;;
9256;SDS011;4665;51.368;6.782;2022-11-21T17:04:27;3.20;;;1.90;;
9256;SDS011;4665;51.368;6.782;2022-11-21T17:06:53;3.73;;;1.90;;
9256;SDS011;4665;51.368;6.782;2022-11-21T17:09:18;2.67;;;2.00;;
9256;SDS011;4665;51.368;6.782;2022-11-21T17:11:43;3.43;;;1.63;;
9256;SDS011;4665;51.368;6.782;2022-11-21T17:14:09;3.17;;;2.00;;
9256;SDS011;4665;51.368;6.782;2022-11-21T17:16:36;3.27;;;1.87;;
9256;SDS011;4665;51.368;6.782;2022-11-21T17:19:03;3.03;;;2.00;;
9256;SDS011;4665;51.368;6.782;2022-11-21T17:21:29;4.80;;;2.30;;
9256;SDS011;4665;51.368;6.782;2022-11-21T17:23:55;7.50;;;2.13;;
9256;SDS011;4665;51.368;6.782;2022-11-21T17:26:21;4.67;;;2.23;;
9256;SDS011;4665;51.368;6.782;2022-11-21T17:28:49;4.30;;;1.93;;
9256;SDS011;4665;51.368;6.782;2022-11-21T17:31:16;2.77;;;2.10;;
9256;SDS011;4665;51.368;6.782;2022-11-21T17:33:41;2.57;;;2.27;;
9256;SDS011;4665;51.368;6.782;2022-11-21T17:36:10;2.13;;;1.93;;
9256;SDS011;4665;51.368;6.782;2022-11-21T17:38:37;3.77;;;2.17;;
9256;SDS011;4665;51.368;6.782;2022-11-21T17:41:04;5.93;;;1.97;;